Sparti, Greece
Current Conditions -  °F | °C
As of 8:50 AM on Tuesday 21 Oct 2014 (Local Time) from LGKL Reporting Station
Clear Clear  
Wind Chill: 59°   Ceiling: Unl
Heat Index: 59°   Visibility: 6mi
Dew Point: 48°   Wind: 5mph
Humidity: 67%   Direction: 310°NW
Pressure: 30"   Gusts: NA
Location:  37.07°N, 22.43°E
Report Text: LGKL 210650Z 31004KT CAVOK 15/09 Q1016
Loading
Personal Weather Stations






























Interactive Weather Map
Tropical Storm Tracking
New forecast layout! Learn more

10-Day Weather Forecast

Advertisements
Track Severe Weather on mobile